sensor_id;sensor_type;location;lat;lon;timestamp;P1;durP1;ratioP1;P2;durP2;ratioP2
11066;SDS011;29763;50.904;5.530;2023-02-15T00:01:59;24.80;;;17.23;;
11066;SDS011;29763;50.904;5.530;2023-02-15T00:04:25;26.10;;;16.70;;
11066;SDS011;29763;50.904;5.530;2023-02-15T00:07:11;24.93;;;16.60;;
11066;SDS011;29763;50.904;5.530;2023-02-15T00:09:38;24.80;;;17.17;;
11066;SDS011;29763;50.904;5.530;2023-02-15T00:12:11;22.70;;;16.17;;
11066;SDS011;29763;50.904;5.530;2023-02-15T00:14:37;25.70;;;17.27;;
11066;SDS011;29763;50.904;5.530;2023-02-15T00:17:02;27.53;;;17.27;;
11066;SDS011;29763;50.904;5.530;2023-02-15T00:19:30;23.57;;;17.13;;
11066;SDS011;29763;50.904;5.530;2023-02-15T00:21:55;25.53;;;17.13;;
11066;SDS011;29763;50.904;5.530;2023-02-15T00:24:21;25.77;;;17.23;;
11066;SDS011;29763;50.904;5.530;2023-02-15T00:26:48;21.70;;;15.93;;
11066;SDS011;29763;50.904;5.530;2023-02-15T00:29:14;22.57;;;15.67;;
11066;SDS011;29763;50.904;5.530;2023-02-15T00:31:42;24.53;;;16.23;;
11066;SDS011;29763;50.904;5.530;2023-02-15T00:34:19;21.00;;;16.17;;
11066;SDS011;29763;50.904;5.530;2023-02-15T00:36:47;22.33;;;15.87;;
11066;SDS011;29763;50.904;5.530;2023-02-15T00:39:14;24.50;;;15.90;;
11066;SDS011;29763;50.904;5.530;2023-02-15T00:41:40;21.90;;;15.67;;
11066;SDS011;29763;50.904;5.530;2023-02-15T00:44:07;21.97;;;16.67;;
11066;SDS011;29763;50.904;5.530;2023-02-15T00:46:33;22.07;;;16.17;;
11066;SDS011;29763;50.904;5.530;2023-02-15T00:49:00;24.10;;;16.83;;
11066;SDS011;29763;50.904;5.530;2023-02-15T00:51:27;25.83;;;17.40;;
11066;SDS011;29763;50.904;5.530;2023-02-15T00:53:52;23.83;;;16.63;;
11066;SDS011;29763;50.904;5.530;2023-02-15T00:56:19;21.33;;;15.93;;
11066;SDS011;29763;50.904;5.530;2023-02-15T00:58:46;22.07;;;15.70;;
11066;SDS011;29763;50.904;5.530;2023-02-15T01:01:14;20.73;;;15.20;;
11066;SDS011;29763;50.904;5.530;2023-02-15T01:03:42;21.30;;;14.13;;
11066;SDS011;29763;50.904;5.530;2023-02-15T01:06:07;19.07;;;14.60;;
11066;SDS011;29763;50.904;5.530;2023-02-15T01:08:34;20.37;;;14.23;;
11066;SDS011;29763;50.904;5.530;2023-02-15T01:11:07;17.23;;;13.43;;
11066;SDS011;29763;50.904;5.530;2023-02-15T01:13:35;17.50;;;13.90;;
11066;SDS011;29763;50.904;5.530;2023-02-15T01:16:02;18.80;;;13.87;;
11066;SDS011;29763;50.904;5.530;2023-02-15T01:18:28;20.23;;;13.93;;
11066;SDS011;29763;50.904;5.530;2023-02-15T01:20:55;20.27;;;14.10;;
11066;SDS011;29763;50.904;5.530;2023-02-15T01:23:21;19.37;;;14.17;;
11066;SDS011;29763;50.904;5.530;2023-02-15T01:25:47;22.73;;;14.50;;
11066;SDS011;29763;50.904;5.530;2023-02-15T01:28:12;23.00;;;14.97;;
11066;SDS011;29763;50.904;5.530;2023-02-15T01:30:38;21.30;;;16.03;;
11066;SDS011;29763;50.904;5.530;2023-02-15T01:33:04;25.57;;;16.70;;
11066;SDS011;29763;50.904;5.530;2023-02-15T01:35:30;27.37;;;16.90;;
11066;SDS011;29763;50.904;5.530;2023-02-15T01:37:56;27.27;;;17.30;;
11066;SDS011;29763;50.904;5.530;2023-02-15T01:40:22;24.80;;;15.90;;
11066;SDS011;29763;50.904;5.530;2023-02-15T01:42:50;22.60;;;15.57;;
11066;SDS011;29763;50.904;5.530;2023-02-15T01:48:13;19.67;;;13.60;;
11066;SDS011;29763;50.904;5.530;2023-02-15T01:51:30;19.90;;;13.47;;
11066;SDS011;29763;50.904;5.530;2023-02-15T01:53:43;22.57;;;13.73;;
11066;SDS011;29763;50.904;5.530;2023-02-15T01:56:19;20.30;;;14.13;;
11066;SDS011;29763;50.904;5.530;2023-02-15T01:58:50;19.63;;;13.70;;
11066;SDS011;29763;50.904;5.530;2023-02-15T02:01:17;20.03;;;14.03;;
11066;SDS011;29763;50.904;5.530;2023-02-15T02:06:26;21.90;;;14.83;;
11066;SDS011;29763;50.904;5.530;2023-02-15T02:08:52;23.23;;;15.30;;
11066;SDS011;29763;50.904;5.530;2023-02-15T02:11:20;24.77;;;14.83;;
11066;SDS011;29763;50.904;5.530;2023-02-15T02:13:46;27.43;;;16.87;;
11066;SDS011;29763;50.904;5.530;2023-02-15T02:18:52;25.47;;;16.57;;
11066;SDS011;29763;50.904;5.530;2023-02-15T02:21:51;23.40;;;15.43;;
11066;SDS011;29763;50.904;5.530;2023-02-15T02:24:38;25.07;;;15.90;;
11066;SDS011;29763;50.904;5.530;2023-02-15T02:30:06;22.13;;;15.93;;
11066;SDS011;29763;50.904;5.530;2023-02-15T02:35:32;22.53;;;15.50;;
11066;SDS011;29763;50.904;5.530;2023-02-15T02:44:19;22.77;;;15.27;;
11066;SDS011;29763;50.904;5.530;2023-02-15T02:50:15;27.93;;;15.53;;
11066;SDS011;29763;50.904;5.530;2023-02-15T02:52:47;24.40;;;15.33;;
11066;SDS011;29763;50.904;5.530;2023-02-15T02:58:00;22.20;;;15.80;;
11066;SDS011;29763;50.904;5.530;2023-02-15T03:06:00;22.77;;;14.67;;
11066;SDS011;29763;50.904;5.530;2023-02-15T03:08:32;24.33;;;16.17;;
11066;SDS011;29763;50.904;5.530;2023-02-15T03:11:05;21.87;;;15.03;;
11066;SDS011;29763;50.904;5.530;2023-02-15T03:13:32;23.77;;;15.53;;
11066;SDS011;29763;50.904;5.530;2023-02-15T03:15:59;23.20;;;15.93;;
11066;SDS011;29763;50.904;5.530;2023-02-15T03:18:52;25.43;;;15.83;;
11066;SDS011;29763;50.904;5.530;2023-02-15T03:21:23;24.43;;;15.57;;
11066;SDS011;29763;50.904;5.530;2023-02-15T03:24:15;29.10;;;17.87;;
11066;SDS011;29763;50.904;5.530;2023-02-15T03:26:46;27.13;;;17.17;;
11066;SDS011;29763;50.904;5.530;2023-02-15T03:29:15;26.77;;;17.27;;
11066;SDS011;29763;50.904;5.530;2023-02-15T03:31:45;27.87;;;18.13;;
11066;SDS011;29763;50.904;5.530;2023-02-15T03:34:16;28.13;;;17.70;;
11066;SDS011;29763;50.904;5.530;2023-02-15T03:39:23;28.13;;;17.37;;
11066;SDS011;29763;50.904;5.530;2023-02-15T03:42:10;27.00;;;16.90;;
11066;SDS011;29763;50.904;5.530;2023-02-15T03:44:59;24.20;;;16.73;;
11066;SDS011;29763;50.904;5.530;2023-02-15T03:47:36;27.63;;;16.93;;
11066;SDS011;29763;50.904;5.530;2023-02-15T03:50:05;28.50;;;18.87;;
11066;SDS011;29763;50.904;5.530;2023-02-15T03:53:00;29.03;;;19.07;;
11066;SDS011;29763;50.904;5.530;2023-02-15T03:55:29;29.63;;;17.97;;
11066;SDS011;29763;50.904;5.530;2023-02-15T03:57:56;27.70;;;18.13;;
11066;SDS011;29763;50.904;5.530;2023-02-15T04:00:43;27.37;;;17.33;;
11066;SDS011;29763;50.904;5.530;2023-02-15T04:03:49;24.97;;;16.93;;
11066;SDS011;29763;50.904;5.530;2023-02-15T04:06:25;28.13;;;17.27;;
11066;SDS011;29763;50.904;5.530;2023-02-15T04:08:50;31.13;;;17.77;;
11066;SDS011;29763;50.904;5.530;2023-02-15T04:11:34;24.53;;;17.03;;
11066;SDS011;29763;50.904;5.530;2023-02-15T04:14:00;25.20;;;16.80;;
11066;SDS011;29763;50.904;5.530;2023-02-15T04:16:47;21.60;;;14.67;;
11066;SDS011;29763;50.904;5.530;2023-02-15T04:19:13;22.97;;;15.67;;
11066;SDS011;29763;50.904;5.530;2023-02-15T04:21:57;26.13;;;16.23;;
11066;SDS011;29763;50.904;5.530;2023-02-15T04:24:42;22.57;;;14.97;;
11066;SDS011;29763;50.904;5.530;2023-02-15T04:27:26;23.63;;;15.43;;
11066;SDS011;29763;50.904;5.530;2023-02-15T04:29:53;23.87;;;16.60;;
11066;SDS011;29763;50.904;5.530;2023-02-15T04:32:20;22.67;;;16.93;;
11066;SDS011;29763;50.904;5.530;2023-02-15T04:34:45;25.40;;;17.37;;
11066;SDS011;29763;50.904;5.530;2023-02-15T04:37:11;28.83;;;18.30;;
11066;SDS011;29763;50.904;5.530;2023-02-15T04:39:37;29.80;;;18.27;;
11066;SDS011;29763;50.904;5.530;2023-02-15T04:42:03;29.00;;;19.13;;
11066;SDS011;29763;50.904;5.530;2023-02-15T04:44:29;28.00;;;18.03;;
11066;SDS011;29763;50.904;5.530;2023-02-15T04:46:54;31.00;;;19.50;;
11066;SDS011;29763;50.904;5.530;2023-02-15T04:49:20;30.67;;;18.97;;
11066;SDS011;29763;50.904;5.530;2023-02-15T04:51:47;27.63;;;18.87;;
11066;SDS011;29763;50.904;5.530;2023-02-15T04:54:13;29.07;;;18.57;;
11066;SDS011;29763;50.904;5.530;2023-02-15T04:56:39;28.10;;;18.37;;
11066;SDS011;29763;50.904;5.530;2023-02-15T04:59:09;27.77;;;18.67;;
11066;SDS011;29763;50.904;5.530;2023-02-15T05:01:38;29.17;;;17.83;;
11066;SDS011;29763;50.904;5.530;2023-02-15T05:04:04;26.77;;;18.07;;
11066;SDS011;29763;50.904;5.530;2023-02-15T05:06:31;28.87;;;18.23;;
11066;SDS011;29763;50.904;5.530;2023-02-15T05:08:57;27.17;;;18.23;;
11066;SDS011;29763;50.904;5.530;2023-02-15T05:11:24;29.13;;;19.23;;
11066;SDS011;29763;50.904;5.530;2023-02-15T05:13:53;28.17;;;19.10;;
11066;SDS011;29763;50.904;5.530;2023-02-15T05:16:20;30.93;;;20.13;;
11066;SDS011;29763;50.904;5.530;2023-02-15T05:18:46;32.00;;;20.77;;
11066;SDS011;29763;50.904;5.530;2023-02-15T05:21:11;31.00;;;20.30;;
11066;SDS011;29763;50.904;5.530;2023-02-15T05:23:38;28.77;;;20.53;;
11066;SDS011;29763;50.904;5.530;2023-02-15T05:26:04;30.43;;;19.37;;
11066;SDS011;29763;50.904;5.530;2023-02-15T05:28:50;30.23;;;18.93;;
11066;SDS011;29763;50.904;5.530;2023-02-15T05:31:16;31.17;;;19.03;;
11066;SDS011;29763;50.904;5.530;2023-02-15T05:33:44;33.57;;;18.07;;
11066;SDS011;29763;50.904;5.530;2023-02-15T05:36:10;29.10;;;18.93;;
11066;SDS011;29763;50.904;5.530;2023-02-15T05:38:36;27.90;;;18.17;;
11066;SDS011;29763;50.904;5.530;2023-02-15T05:41:06;29.40;;;18.77;;
11066;SDS011;29763;50.904;5.530;2023-02-15T05:43:35;27.80;;;18.47;;
11066;SDS011;29763;50.904;5.530;2023-02-15T05:46:05;26.47;;;18.43;;
11066;SDS011;29763;50.904;5.530;2023-02-15T05:48:31;26.90;;;18.13;;
11066;SDS011;29763;50.904;5.530;2023-02-15T05:53:42;31.43;;;19.93;;
11066;SDS011;29763;50.904;5.530;2023-02-15T05:56:09;29.70;;;19.07;;
11066;SDS011;29763;50.904;5.530;2023-02-15T05:58:41;31.63;;;19.83;;
11066;SDS011;29763;50.904;5.530;2023-02-15T06:01:12;31.23;;;20.13;;
11066;SDS011;29763;50.904;5.530;2023-02-15T06:03:40;37.43;;;20.57;;
11066;SDS011;29763;50.904;5.530;2023-02-15T06:06:06;33.27;;;20.57;;
11066;SDS011;29763;50.904;5.530;2023-02-15T06:08:33;31.57;;;20.67;;
11066;SDS011;29763;50.904;5.530;2023-02-15T06:11:00;33.40;;;20.43;;
11066;SDS011;29763;50.904;5.530;2023-02-15T06:13:26;30.17;;;19.43;;
11066;SDS011;29763;50.904;5.530;2023-02-15T06:15:52;35.10;;;21.30;;
11066;SDS011;29763;50.904;5.530;2023-02-15T06:18:17;28.00;;;19.43;;
11066;SDS011;29763;50.904;5.530;2023-02-15T06:20:48;32.53;;;20.40;;
11066;SDS011;29763;50.904;5.530;2023-02-15T06:23:14;31.20;;;20.13;;
11066;SDS011;29763;50.904;5.530;2023-02-15T06:25:41;31.70;;;20.87;;
11066;SDS011;29763;50.904;5.530;2023-02-15T06:28:07;29.77;;;18.73;;
11066;SDS011;29763;50.904;5.530;2023-02-15T06:30:34;32.03;;;20.63;;
11066;SDS011;29763;50.904;5.530;2023-02-15T06:33:00;33.90;;;21.13;;
11066;SDS011;29763;50.904;5.530;2023-02-15T06:35:26;36.03;;;21.27;;
11066;SDS011;29763;50.904;5.530;2023-02-15T06:37:52;37.70;;;22.27;;
11066;SDS011;29763;50.904;5.530;2023-02-15T06:40:18;39.47;;;23.63;;
11066;SDS011;29763;50.904;5.530;2023-02-15T06:42:45;42.27;;;24.93;;
11066;SDS011;29763;50.904;5.530;2023-02-15T06:45:12;40.80;;;24.13;;
11066;SDS011;29763;50.904;5.530;2023-02-15T06:47:38;39.33;;;23.83;;
11066;SDS011;29763;50.904;5.530;2023-02-15T06:50:04;39.60;;;23.47;;
11066;SDS011;29763;50.904;5.530;2023-02-15T06:52:31;42.23;;;24.57;;
11066;SDS011;29763;50.904;5.530;2023-02-15T06:54:57;38.63;;;23.57;;
11066;SDS011;29763;50.904;5.530;2023-02-15T06:57:23;39.23;;;22.80;;
11066;SDS011;29763;50.904;5.530;2023-02-15T06:59:50;41.87;;;23.87;;
11066;SDS011;29763;50.904;5.530;2023-02-15T07:02:17;42.27;;;24.17;;
11066;SDS011;29763;50.904;5.530;2023-02-15T07:04:44;40.20;;;24.00;;
11066;SDS011;29763;50.904;5.530;2023-02-15T07:07:10;37.37;;;23.23;;
11066;SDS011;29763;50.904;5.530;2023-02-15T07:09:38;45.23;;;24.37;;
11066;SDS011;29763;50.904;5.530;2023-02-15T07:12:06;44.30;;;25.67;;
11066;SDS011;29763;50.904;5.530;2023-02-15T07:14:50;44.80;;;26.10;;
11066;SDS011;29763;50.904;5.530;2023-02-15T07:17:16;52.10;;;28.87;;
11066;SDS011;29763;50.904;5.530;2023-02-15T07:19:42;48.37;;;28.13;;
11066;SDS011;29763;50.904;5.530;2023-02-15T07:22:09;53.10;;;28.97;;
11066;SDS011;29763;50.904;5.530;2023-02-15T07:24:35;47.13;;;27.20;;
11066;SDS011;29763;50.904;5.530;2023-02-15T07:27:06;49.93;;;28.10;;
11066;SDS011;29763;50.904;5.530;2023-02-15T07:29:34;48.87;;;27.83;;
11066;SDS011;29763;50.904;5.530;2023-02-15T07:32:01;52.33;;;27.80;;
11066;SDS011;29763;50.904;5.530;2023-02-15T07:34:29;54.43;;;30.40;;
11066;SDS011;29763;50.904;5.530;2023-02-15T07:36:55;50.77;;;30.87;;
11066;SDS011;29763;50.904;5.530;2023-02-15T07:39:22;49.00;;;29.27;;
11066;SDS011;29763;50.904;5.530;2023-02-15T07:41:48;50.03;;;28.40;;
11066;SDS011;29763;50.904;5.530;2023-02-15T07:44:14;50.53;;;28.37;;
11066;SDS011;29763;50.904;5.530;2023-02-15T07:46:40;51.20;;;30.03;;
11066;SDS011;29763;50.904;5.530;2023-02-15T07:49:07;51.27;;;28.80;;
11066;SDS011;29763;50.904;5.530;2023-02-15T07:51:34;49.07;;;28.57;;
11066;SDS011;29763;50.904;5.530;2023-02-15T07:54:00;53.30;;;30.77;;
11066;SDS011;29763;50.904;5.530;2023-02-15T07:56:26;52.83;;;30.47;;
11066;SDS011;29763;50.904;5.530;2023-02-15T07:58:51;50.53;;;31.43;;
11066;SDS011;29763;50.904;5.530;2023-02-15T08:04:05;52.90;;;30.80;;
11066;SDS011;29763;50.904;5.530;2023-02-15T08:06:33;57.07;;;32.07;;
11066;SDS011;29763;50.904;5.530;2023-02-15T08:09:02;54.93;;;31.70;;
11066;SDS011;29763;50.904;5.530;2023-02-15T08:11:31;51.23;;;29.97;;
11066;SDS011;29763;50.904;5.530;2023-02-15T08:13:59;59.17;;;31.43;;
11066;SDS011;29763;50.904;5.530;2023-02-15T08:16:40;51.53;;;30.73;;
11066;SDS011;29763;50.904;5.530;2023-02-15T08:19:18;54.53;;;31.03;;
11066;SDS011;29763;50.904;5.530;2023-02-15T08:21:46;51.10;;;30.77;;
11066;SDS011;29763;50.904;5.530;2023-02-15T08:24:35;52.50;;;30.77;;
11066;SDS011;29763;50.904;5.530;2023-02-15T08:27:02;53.50;;;30.27;;
11066;SDS011;29763;50.904;5.530;2023-02-15T08:29:29;50.67;;;30.87;;
11066;SDS011;29763;50.904;5.530;2023-02-15T08:31:57;48.40;;;30.23;;
11066;SDS011;29763;50.904;5.530;2023-02-15T08:34:27;53.57;;;31.83;;
11066;SDS011;29763;50.904;5.530;2023-02-15T08:36:55;53.37;;;31.77;;
11066;SDS011;29763;50.904;5.530;2023-02-15T08:39:22;51.43;;;29.80;;
11066;SDS011;29763;50.904;5.530;2023-02-15T08:41:48;50.77;;;31.30;;
11066;SDS011;29763;50.904;5.530;2023-02-15T08:44:15;46.77;;;30.87;;
11066;SDS011;29763;50.904;5.530;2023-02-15T08:46:43;50.80;;;31.83;;
11066;SDS011;29763;50.904;5.530;2023-02-15T08:49:18;52.23;;;32.30;;
11066;SDS011;29763;50.904;5.530;2023-02-15T08:51:46;60.57;;;31.93;;
11066;SDS011;29763;50.904;5.530;2023-02-15T08:54:13;49.63;;;30.37;;
11066;SDS011;29763;50.904;5.530;2023-02-15T08:56:42;51.10;;;31.63;;
11066;SDS011;29763;50.904;5.530;2023-02-15T08:59:27;49.83;;;31.33;;
11066;SDS011;29763;50.904;5.530;2023-02-15T09:01:53;49.03;;;30.17;;
11066;SDS011;29763;50.904;5.530;2023-02-15T09:04:20;53.70;;;30.40;;
11066;SDS011;29763;50.904;5.530;2023-02-15T09:06:47;50.90;;;29.77;;
11066;SDS011;29763;50.904;5.530;2023-02-15T09:09:14;55.77;;;33.03;;
11066;SDS011;29763;50.904;5.530;2023-02-15T09:11:41;51.23;;;32.87;;
11066;SDS011;29763;50.904;5.530;2023-02-15T09:14:11;51.60;;;32.77;;
11066;SDS011;29763;50.904;5.530;2023-02-15T09:16:39;49.17;;;32.13;;
11066;SDS011;29763;50.904;5.530;2023-02-15T09:19:07;57.57;;;33.83;;
11066;SDS011;29763;50.904;5.530;2023-02-15T09:21:34;57.37;;;34.20;;
11066;SDS011;29763;50.904;5.530;2023-02-15T09:24:07;57.07;;;35.33;;
11066;SDS011;29763;50.904;5.530;2023-02-15T09:26:37;56.97;;;35.93;;
11066;SDS011;29763;50.904;5.530;2023-02-15T09:29:07;62.90;;;37.87;;
11066;SDS011;29763;50.904;5.530;2023-02-15T09:31:38;57.23;;;37.70;;
11066;SDS011;29763;50.904;5.530;2023-02-15T09:34:11;66.90;;;39.40;;
11066;SDS011;29763;50.904;5.530;2023-02-15T09:36:42;61.43;;;37.97;;
11066;SDS011;29763;50.904;5.530;2023-02-15T09:41:44;60.13;;;35.37;;
11066;SDS011;29763;50.904;5.530;2023-02-15T10:03:42;33.60;;;23.03;;
11066;SDS011;29763;50.904;5.530;2023-02-15T10:06:40;31.93;;;22.13;;
11066;SDS011;29763;50.904;5.530;2023-02-15T10:26:11;26.17;;;19.67;;
11066;SDS011;29763;50.904;5.530;2023-02-15T10:28:51;27.77;;;19.52;;
11066;SDS011;29763;50.904;5.530;2023-02-15T10:43:05;25.17;;;18.70;;
11066;SDS011;29763;50.904;5.530;2023-02-15T11:06:55;26.02;;;19.00;;
11066;SDS011;29763;50.904;5.530;2023-02-15T11:09:25;25.40;;;19.40;;
11066;SDS011;29763;50.904;5.530;2023-02-15T11:12:01;25.17;;;17.98;;
11066;SDS011;29763;50.904;5.530;2023-02-15T11:14:31;26.20;;;19.38;;
11066;SDS011;29763;50.904;5.530;2023-02-15T11:17:02;26.38;;;19.30;;
11066;SDS011;29763;50.904;5.530;2023-02-15T11:22:21;28.38;;;19.15;;
11066;SDS011;29763;50.904;5.530;2023-02-15T11:24:47;26.67;;;21.75;;
11066;SDS011;29763;50.904;5.530;2023-02-15T11:29:59;25.33;;;18.15;;
11066;SDS011;29763;50.904;5.530;2023-02-15T11:32:35;23.33;;;17.63;;
11066;SDS011;29763;50.904;5.530;2023-02-15T11:38:20;20.95;;;17.17;;
11066;SDS011;29763;50.904;5.530;2023-02-15T11:43:02;23.63;;;17.48;;
11066;SDS011;29763;50.904;5.530;2023-02-15T11:45:37;22.77;;;17.52;;
11066;SDS011;29763;50.904;5.530;2023-02-15T11:48:09;22.30;;;17.52;;
11066;SDS011;29763;50.904;5.530;2023-02-15T11:50:37;25.27;;;18.13;;
11066;SDS011;29763;50.904;5.530;2023-02-15T11:53:17;26.40;;;19.08;;
11066;SDS011;29763;50.904;5.530;2023-02-15T11:55:52;23.50;;;17.98;;
11066;SDS011;29763;50.904;5.530;2023-02-15T12:01:32;25.58;;;18.10;;
11066;SDS011;29763;50.904;5.530;2023-02-15T12:06:33;24.73;;;18.90;;
11066;SDS011;29763;50.904;5.530;2023-02-15T12:14:49;22.60;;;17.77;;
11066;SDS011;29763;50.904;5.530;2023-02-15T12:17:16;24.67;;;17.92;;
11066;SDS011;29763;50.904;5.530;2023-02-15T12:19:43;23.23;;;18.27;;
11066;SDS011;29763;50.904;5.530;2023-02-15T12:28:14;23.83;;;16.83;;
11066;SDS011;29763;50.904;5.530;2023-02-15T12:31:07;22.45;;;16.65;;
11066;SDS011;29763;50.904;5.530;2023-02-15T12:33:52;22.15;;;17.63;;
11066;SDS011;29763;50.904;5.530;2023-02-15T12:36:22;24.35;;;17.73;;
11066;SDS011;29763;50.904;5.530;2023-02-15T12:39:03;24.55;;;17.60;;
11066;SDS011;29763;50.904;5.530;2023-02-15T12:41:46;27.85;;;18.08;;
11066;SDS011;29763;50.904;5.530;2023-02-15T12:44:31;23.35;;;17.63;;
11066;SDS011;29763;50.904;5.530;2023-02-15T12:46:59;24.88;;;17.45;;
11066;SDS011;29763;50.904;5.530;2023-02-15T12:49:44;23.88;;;17.80;;
11066;SDS011;29763;50.904;5.530;2023-02-15T12:52:31;23.60;;;17.90;;
11066;SDS011;29763;50.904;5.530;2023-02-15T12:55:07;23.75;;;18.20;;
11066;SDS011;29763;50.904;5.530;2023-02-15T12:57:46;25.50;;;18.65;;
11066;SDS011;29763;50.904;5.530;2023-02-15T13:00:25;25.02;;;17.70;;
11066;SDS011;29763;50.904;5.530;2023-02-15T13:02:54;25.65;;;17.80;;
11066;SDS011;29763;50.904;5.530;2023-02-15T13:05:23;23.70;;;17.27;;
11066;SDS011;29763;50.904;5.530;2023-02-15T13:08:01;24.58;;;18.63;;
11066;SDS011;29763;50.904;5.530;2023-02-15T13:10:37;23.33;;;17.40;;
11066;SDS011;29763;50.904;5.530;2023-02-15T13:13:47;23.75;;;18.48;;
11066;SDS011;29763;50.904;5.530;2023-02-15T13:15:58;27.40;;;18.80;;
11066;SDS011;29763;50.904;5.530;2023-02-15T13:18:36;24.88;;;18.45;;
11066;SDS011;29763;50.904;5.530;2023-02-15T13:21:13;24.95;;;18.55;;
11066;SDS011;29763;50.904;5.530;2023-02-15T13:23:46;25.90;;;17.80;;
11066;SDS011;29763;50.904;5.530;2023-02-15T13:26:16;28.80;;;18.42;;
11066;SDS011;29763;50.904;5.530;2023-02-15T13:28:46;23.25;;;18.48;;
11066;SDS011;29763;50.904;5.530;2023-02-15T13:31:25;26.27;;;18.52;;
11066;SDS011;29763;50.904;5.530;2023-02-15T13:33:58;24.50;;;18.30;;
11066;SDS011;29763;50.904;5.530;2023-02-15T13:36:48;23.15;;;18.13;;
11066;SDS011;29763;50.904;5.530;2023-02-15T13:39:32;25.27;;;18.23;;
11066;SDS011;29763;50.904;5.530;2023-02-15T13:42:24;25.60;;;18.48;;
11066;SDS011;29763;50.904;5.530;2023-02-15T13:50:20;26.10;;;18.58;;
11066;SDS011;29763;50.904;5.530;2023-02-15T13:55:43;23.85;;;18.60;;
11066;SDS011;29763;50.904;5.530;2023-02-15T14:01:22;25.42;;;18.80;;
11066;SDS011;29763;50.904;5.530;2023-02-15T14:06:50;28.08;;;18.55;;
11066;SDS011;29763;50.904;5.530;2023-02-15T14:14:59;27.52;;;19.77;;
11066;SDS011;29763;50.904;5.530;2023-02-15T14:17:53;23.83;;;19.17;;
11066;SDS011;29763;50.904;5.530;2023-02-15T14:20:33;27.73;;;19.55;;
11066;SDS011;29763;50.904;5.530;2023-02-15T14:25:54;22.75;;;18.33;;
11066;SDS011;29763;50.904;5.530;2023-02-15T14:31:28;24.85;;;18.95;;
11066;SDS011;29763;50.904;5.530;2023-02-15T14:33:59;26.38;;;20.13;;
11066;SDS011;29763;50.904;5.530;2023-02-15T14:36:25;27.52;;;19.00;;
11066;SDS011;29763;50.904;5.530;2023-02-15T14:42:09;26.55;;;19.00;;
11066;SDS011;29763;50.904;5.530;2023-02-15T14:45:04;29.02;;;20.48;;
11066;SDS011;29763;50.904;5.530;2023-02-15T14:47:42;27.95;;;18.48;;
11066;SDS011;29763;50.904;5.530;2023-02-15T15:04:02;27.52;;;18.00;;
11066;SDS011;29763;50.904;5.530;2023-02-15T15:06:33;27.08;;;17.60;;
11066;SDS011;29763;50.904;5.530;2023-02-15T15:11:45;25.70;;;16.92;;
11066;SDS011;29763;50.904;5.530;2023-02-15T15:14:54;28.30;;;18.02;;
11066;SDS011;29763;50.904;5.530;2023-02-15T15:17:03;24.20;;;16.85;;
11066;SDS011;29763;50.904;5.530;2023-02-15T15:22:32;23.10;;;16.75;;
11066;SDS011;29763;50.904;5.530;2023-02-15T15:25:03;30.05;;;16.75;;
11066;SDS011;29763;50.904;5.530;2023-02-15T15:41:19;27.58;;;17.40;;
11066;SDS011;29763;50.904;5.530;2023-02-15T15:50:18;27.20;;;18.85;;
11066;SDS011;29763;50.904;5.530;2023-02-15T15:52:49;33.13;;;22.00;;
11066;SDS011;29763;50.904;5.530;2023-02-15T15:55:21;30.65;;;21.23;;
11066;SDS011;29763;50.904;5.530;2023-02-15T15:57:53;32.10;;;21.20;;
11066;SDS011;29763;50.904;5.530;2023-02-15T16:02:59;36.05;;;21.33;;
11066;SDS011;29763;50.904;5.530;2023-02-15T16:05:26;34.55;;;22.45;;
11066;SDS011;29763;50.904;5.530;2023-02-15T16:07:52;34.35;;;22.30;;
11066;SDS011;29763;50.904;5.530;2023-02-15T16:10:22;34.78;;;23.92;;
11066;SDS011;29763;50.904;5.530;2023-02-15T16:12:51;39.08;;;24.98;;
11066;SDS011;29763;50.904;5.530;2023-02-15T16:15:25;40.38;;;25.77;;
11066;SDS011;29763;50.904;5.530;2023-02-15T16:18:11;51.22;;;27.63;;
11066;SDS011;29763;50.904;5.530;2023-02-15T16:20:41;41.50;;;24.38;;
11066;SDS011;29763;50.904;5.530;2023-02-15T16:23:21;47.97;;;29.60;;
11066;SDS011;29763;50.904;5.530;2023-02-15T16:28:38;49.88;;;35.75;;
11066;SDS011;29763;50.904;5.530;2023-02-15T16:31:12;51.65;;;33.63;;
11066;SDS011;29763;50.904;5.530;2023-02-15T16:33:40;54.15;;;34.75;;
11066;SDS011;29763;50.904;5.530;2023-02-15T16:36:11;85.55;;;50.90;;
11066;SDS011;29763;50.904;5.530;2023-02-15T16:41:33;68.20;;;41.20;;
11066;SDS011;29763;50.904;5.530;2023-02-15T16:44:03;72.40;;;45.83;;
11066;SDS011;29763;50.904;5.530;2023-02-15T16:46:33;93.97;;;54.53;;
11066;SDS011;29763;50.904;5.530;2023-02-15T16:49:19;55.83;;;37.75;;
11066;SDS011;29763;50.904;5.530;2023-02-15T16:51:58;47.88;;;31.27;;
11066;SDS011;29763;50.904;5.530;2023-02-15T16:54:26;35.30;;;24.75;;
11066;SDS011;29763;50.904;5.530;2023-02-15T16:56:53;32.13;;;22.25;;
11066;SDS011;29763;50.904;5.530;2023-02-15T17:02:05;32.55;;;21.88;;
11066;SDS011;29763;50.904;5.530;2023-02-15T17:04:37;35.28;;;22.65;;
11066;SDS011;29763;50.904;5.530;2023-02-15T17:07:05;37.03;;;23.83;;
11066;SDS011;29763;50.904;5.530;2023-02-15T17:09:48;37.55;;;23.67;;
11066;SDS011;29763;50.904;5.530;2023-02-15T17:17:54;35.20;;;22.42;;
11066;SDS011;29763;50.904;5.530;2023-02-15T17:20:39;33.15;;;21.00;;
11066;SDS011;29763;50.904;5.530;2023-02-15T17:23:15;37.65;;;22.02;;
11066;SDS011;29763;50.904;5.530;2023-02-15T17:25:56;32.83;;;22.50;;
11066;SDS011;29763;50.904;5.530;2023-02-15T17:28:23;39.92;;;23.17;;
11066;SDS011;29763;50.904;5.530;2023-02-15T17:30:53;40.75;;;24.77;;
11066;SDS011;29763;50.904;5.530;2023-02-15T17:33:24;35.42;;;22.15;;
11066;SDS011;29763;50.904;5.530;2023-02-15T17:38:33;36.72;;;22.38;;
11066;SDS011;29763;50.904;5.530;2023-02-15T17:41:00;35.17;;;21.75;;
11066;SDS011;29763;50.904;5.530;2023-02-15T17:43:29;34.90;;;21.83;;
11066;SDS011;29763;50.904;5.530;2023-02-15T17:45:55;39.67;;;24.15;;
11066;SDS011;29763;50.904;5.530;2023-02-15T17:48:24;37.03;;;22.70;;
11066;SDS011;29763;50.904;5.530;2023-02-15T17:51:00;34.42;;;23.50;;
11066;SDS011;29763;50.904;5.530;2023-02-15T17:53:28;35.42;;;22.63;;
11066;SDS011;29763;50.904;5.530;2023-02-15T17:55:54;38.55;;;22.73;;
11066;SDS011;29763;50.904;5.530;2023-02-15T17:58:20;33.83;;;22.95;;
11066;SDS011;29763;50.904;5.530;2023-02-15T18:00:50;33.40;;;21.85;;
11066;SDS011;29763;50.904;5.530;2023-02-15T18:03:42;34.75;;;22.08;;
11066;SDS011;29763;50.904;5.530;2023-02-15T18:06:34;31.48;;;20.77;;
11066;SDS011;29763;50.904;5.530;2023-02-15T18:09:20;29.20;;;19.67;;
11066;SDS011;29763;50.904;5.530;2023-02-15T18:12:29;26.00;;;19.33;;
11066;SDS011;29763;50.904;5.530;2023-02-15T18:14:55;28.80;;;19.77;;
11066;SDS011;29763;50.904;5.530;2023-02-15T18:20:05;29.75;;;20.63;;
11066;SDS011;29763;50.904;5.530;2023-02-15T18:22:42;29.52;;;19.95;;
11066;SDS011;29763;50.904;5.530;2023-02-15T18:25:14;28.48;;;20.15;;
11066;SDS011;29763;50.904;5.530;2023-02-15T18:27:41;30.67;;;21.10;;
11066;SDS011;29763;50.904;5.530;2023-02-15T18:30:12;31.50;;;20.87;;
11066;SDS011;29763;50.904;5.530;2023-02-15T18:32:40;36.15;;;19.75;;
11066;SDS011;29763;50.904;5.530;2023-02-15T18:35:06;31.27;;;20.00;;
11066;SDS011;29763;50.904;5.530;2023-02-15T18:37:38;32.88;;;19.25;;